Time;durP1;ratioP1;P1;durP2;ratioP2;P2;SDS_P1;SDS_P2;PMS_P1;PMS_P2;Temp;Humidity;BMP_temperature;BMP_pressure;BME280_temperature;BME280_humidity;BME280_pressure;Samples;Min_cycle;Max_cycle;Signal;HPM_P1;HPM_P2
2023/07/20 00:01:55;;;;;;;5.47;3.67;;;16.70;99.90;;;;;;5052322;28;20264;-59
2023/07/20 00:04:23;;;;;;;6.33;3.80;;;16.70;99.90;;;;;;5052120;28;20185;-60
2023/07/20 00:06:52;;;;;;;9.27;3.83;;;16.70;99.90;;;;;;5062861;28;20196;-60
2023/07/20 00:09:21;;;;;;;7.40;4.20;;;16.70;99.90;;;;;;5058174;28;20273;-60
2023/07/20 00:11:51;;;;;;;5.60;3.73;;;16.60;99.90;;;;;;5055035;28;20192;-60
2023/07/20 00:14:20;;;;;;;5.50;3.70;;;16.60;99.90;;;;;;5044174;28;20193;-60
2023/07/20 00:16:55;;;;;;;6.93;4.13;;;16.60;99.90;;;;;;5050277;28;20188;-60
2023/07/20 00:19:26;;;;;;;5.67;4.00;;;16.50;99.90;;;;;;5064035;28;20204;-60
2023/07/20 00:21:55;;;;;;;7.63;4.30;;;16.50;99.90;;;;;;5061168;28;20274;-60
2023/07/20 00:24:24;;;;;;;11.07;4.57;;;16.40;99.90;;;;;;5067532;28;20188;-60
2023/07/20 00:26:52;;;;;;;7.40;4.47;;;16.40;99.90;;;;;;5056449;28;20203;-60
2023/07/20 00:29:20;;;;;;;7.77;4.23;;;16.50;99.90;;;;;;5060296;28;20212;-60
2023/07/20 00:31:49;;;;;;;6.73;5.30;;;16.40;99.90;;;;;;5052655;28;20188;-60
2023/07/20 00:34:19;;;;;;;8.40;5.37;;;16.50;99.90;;;;;;5048403;28;20192;-60
2023/07/20 00:36:49;;;;;;;12.67;5.63;;;16.40;99.90;;;;;;5044263;28;20569;-57
2023/07/20 00:39:17;;;;;;;6.40;5.27;;;16.40;99.90;;;;;;5053685;28;20201;-59
2023/07/20 00:41:45;;;;;;;9.33;5.20;;;16.40;99.90;;;;;;5052971;28;20192;-59
2023/07/20 00:44:14;;;;;;;8.73;5.43;;;16.40;99.90;;;;;;5050466;28;20202;-59
2023/07/20 00:46:43;;;;;;;12.63;6.13;;;16.40;99.90;;;;;;5060997;28;20195;-59
2023/07/20 00:49:12;;;;;;;10.47;5.97;;;16.40;99.90;;;;;;5058689;28;20321;-59
2023/07/20 00:51:41;;;;;;;15.00;5.80;;;16.40;99.90;;;;;;5055649;28;20184;-59
2023/07/20 00:54:11;;;;;;;13.40;5.60;;;16.30;99.90;;;;;;5052693;28;20196;-59
2023/07/20 00:56:40;;;;;;;10.53;5.87;;;16.30;99.90;;;;;;5044567;28;20515;-59
2023/07/20 00:59:08;;;;;;;10.47;5.80;;;16.20;99.90;;;;;;5046462;28;20212;-58
2023/07/20 01:01:37;;;;;;;12.07;6.93;;;16.20;99.90;;;;;;5055638;28;20192;-58
2023/07/20 01:04:06;;;;;;;11.77;6.00;;;16.10;99.90;;;;;;5054485;28;20203;-59
2023/07/20 01:06:42;;;;;;;15.20;6.67;;;16.10;99.90;;;;;;5054095;28;20824;-59
2023/07/20 01:09:19;;;;;;;12.03;6.60;;;16.00;99.90;;;;;;5046098;28;20197;-59
2023/07/20 01:11:55;;;;;;;11.30;7.13;;;16.00;99.90;;;;;;5059996;28;20565;-59
2023/07/20 01:14:25;;;;;;;16.50;6.67;;;15.90;99.90;;;;;;5049147;28;20190;-59
2023/07/20 01:16:53;;;;;;;16.60;7.43;;;15.90;99.90;;;;;;5058906;28;20245;-59
2023/07/20 01:19:21;;;;;;;15.57;6.83;;;15.80;99.90;;;;;;5057288;28;20671;-59
2023/07/20 01:21:56;;;;;;;11.90;6.97;;;15.80;99.90;;;;;;5050768;28;20281;-59
2023/07/20 01:25:02;;;;;;;14.37;7.50;;;15.80;99.90;;;;;;5058258;28;20601;-59
2023/07/20 01:28:10;;;;;;;17.93;7.23;;;15.80;99.90;;;;;;5052294;28;20193;-59
2023/07/20 01:30:51;;;;;;;10.23;6.73;;;15.90;99.90;;;;;;5016051;28;20204;-59
2023/07/20 01:33:22;;;;;;;22.10;7.70;;;15.90;99.90;;;;;;5053819;28;20205;-59
2023/07/20 01:35:54;;;;;;;12.90;7.07;;;15.90;99.90;;;;;;5038487;28;20308;-59
2023/07/20 01:38:24;;;;;;;11.03;7.13;;;15.90;99.90;;;;;;5049817;28;20199;-58
2023/07/20 01:40:53;;;;;;;15.50;7.57;;;15.90;99.90;;;;;;5056648;28;20211;-58
2023/07/20 01:43:21;;;;;;;17.73;7.40;;;16.00;99.90;;;;;;5050820;28;20204;-59
2023/07/20 01:45:49;;;;;;;11.30;7.53;;;15.90;99.90;;;;;;5058185;28;20216;-59
2023/07/20 01:48:17;;;;;;;17.13;8.23;;;15.90;99.90;;;;;;5051039;28;20325;-59
2023/07/20 01:50:47;;;;;;;15.13;7.77;;;15.90;99.90;;;;;;5049246;28;20257;-59
2023/07/20 01:53:16;;;;;;;13.40;7.80;;;15.90;99.90;;;;;;5055513;28;20193;-59
2023/07/20 01:55:44;;;;;;;15.47;7.87;;;15.80;99.90;;;;;;5060264;28;20191;-59
2023/07/20 01:58:12;;;;;;;10.70;7.00;;;15.70;99.90;;;;;;5053656;28;20652;-59
2023/07/20 02:00:41;;;;;;;14.40;8.10;;;15.70;99.90;;;;;;5044579;28;20221;-59
2023/07/20 02:03:11;;;;;;;11.03;8.07;;;15.60;99.90;;;;;;5051641;28;20521;-59
2023/07/20 02:05:40;;;;;;;17.57;7.97;;;15.60;99.90;;;;;;5053775;28;20219;-59
2023/07/20 02:08:10;;;;;;;14.27;7.63;;;15.50;99.90;;;;;;5051950;28;20239;-58
2023/07/20 02:10:39;;;;;;;16.17;8.60;;;15.50;99.90;;;;;;5051686;28;20557;-59
2023/07/20 02:13:07;;;;;;;15.23;8.73;;;15.50;99.90;;;;;;5048575;28;20201;-59
2023/07/20 02:15:35;;;;;;;18.33;9.30;;;15.40;99.90;;;;;;5043568;28;20196;-59
2023/07/20 02:18:04;;;;;;;17.90;7.97;;;15.30;99.90;;;;;;5044925;28;20195;-59
2023/07/20 02:20:32;;;;;;;11.57;8.03;;;15.30;99.90;;;;;;5052150;28;20224;-59
2023/07/20 02:23:01;;;;;;;17.13;9.03;;;15.20;99.90;;;;;;5051214;28;20555;-59
2023/07/20 02:25:30;;;;;;;16.93;9.03;;;15.20;99.90;;;;;;5047862;28;20288;-59
2023/07/20 02:27:59;;;;;;;22.30;9.73;;;15.20;99.90;;;;;;5046501;28;20790;-59
2023/07/20 02:30:28;;;;;;;17.90;9.73;;;15.10;99.90;;;;;;5049936;28;20206;-59
2023/07/20 02:32:58;;;;;;;17.83;9.97;;;15.10;99.90;;;;;;5046491;28;20191;-59
2023/07/20 02:35:26;;;;;;;20.10;10.40;;;15.10;99.90;;;;;;5044455;28;20191;-59
2023/07/20 02:37:55;;;;;;;17.90;9.57;;;15.10;99.90;;;;;;5052292;28;20197;-59
2023/07/20 02:40:23;;;;;;;20.33;11.00;;;15.00;99.90;;;;;;5049570;28;20208;-59
2023/07/20 02:42:53;;;;;;;16.80;10.00;;;15.00;99.90;;;;;;5054005;28;20201;-59
2023/07/20 02:45:21;;;;;;;18.47;10.27;;;14.90;99.90;;;;;;5058144;28;20288;-59
2023/07/20 02:47:50;;;;;;;19.47;10.13;;;14.90;99.90;;;;;;5051007;28;20563;-59
2023/07/20 02:50:18;;;;;;;22.13;10.60;;;14.90;99.90;;;;;;5055545;28;20213;-59
2023/07/20 02:52:46;;;;;;;23.50;11.87;;;14.90;99.90;;;;;;5055847;28;20295;-59
2023/07/20 02:55:15;;;;;;;16.90;10.70;;;14.90;99.90;;;;;;5044198;28;20202;-59
2023/07/20 02:57:43;;;;;;;23.90;11.70;;;14.90;99.90;;;;;;5045445;28;20205;-59
2023/07/20 03:00:16;;;;;;;19.63;11.27;;;14.90;99.90;;;;;;5053022;28;20216;-59
2023/07/20 03:02:47;;;;;;;19.67;9.87;;;15.00;99.90;;;;;;5040819;28;20190;-59
2023/07/20 03:05:16;;;;;;;21.43;10.63;;;15.10;99.90;;;;;;5047864;28;20195;-59
2023/07/20 03:07:45;;;;;;;21.83;10.87;;;15.10;99.90;;;;;;5049674;28;20207;-59
2023/07/20 03:10:13;;;;;;;22.03;11.40;;;15.10;99.90;;;;;;5045876;28;20539;-58
2023/07/20 03:12:42;;;;;;;19.47;11.63;;;15.20;99.90;;;;;;5048470;28;20196;-58
2023/07/20 03:15:11;;;;;;;16.10;10.90;;;15.20;99.90;;;;;;5050103;28;20189;-58
2023/07/20 03:17:40;;;;;;;19.87;10.97;;;15.20;99.90;;;;;;5044933;28;20185;-59
2023/07/20 03:20:12;;;;;;;16.90;10.53;;;15.30;99.90;;;;;;5058629;28;20211;-59
2023/07/20 03:22:41;;;;;;;16.63;10.73;;;15.30;99.90;;;;;;5047927;28;20616;-59
2023/07/20 03:25:10;;;;;;;18.03;10.33;;;15.30;99.90;;;;;;5048901;28;20202;-59
2023/07/20 03:27:38;;;;;;;20.50;12.13;;;15.30;99.90;;;;;;5049598;28;20207;-59
2023/07/20 03:30:09;;;;;;;22.07;11.47;;;15.30;99.90;;;;;;5042005;28;20192;-59
2023/07/20 03:32:37;;;;;;;17.10;10.90;;;15.30;99.90;;;;;;5050127;28;20196;-59
2023/07/20 03:35:09;;;;;;;16.53;11.07;;;15.30;99.90;;;;;;5047477;28;20280;-59
2023/07/20 03:37:38;;;;;;;18.80;11.47;;;15.30;99.90;;;;;;5048996;28;20214;-59
2023/07/20 03:40:07;;;;;;;19.60;11.10;;;15.40;99.90;;;;;;5059969;28;20691;-59
2023/07/20 03:42:38;;;;;;;21.23;11.33;;;15.40;99.90;;;;;;5051216;28;20294;-59
2023/07/20 03:45:07;;;;;;;20.53;11.40;;;15.40;99.90;;;;;;5049229;28;20788;-58
2023/07/20 03:47:36;;;;;;;16.37;10.57;;;15.40;99.90;;;;;;5045413;28;20233;-58
2023/07/20 03:50:05;;;;;;;17.10;11.07;;;15.40;99.90;;;;;;5041480;28;20630;-58
2023/07/20 03:52:35;;;;;;;20.53;12.10;;;15.50;99.90;;;;;;5063871;28;20190;-59
2023/07/20 03:55:03;;;;;;;19.13;11.23;;;15.50;99.90;;;;;;5045514;28;20196;-59
2023/07/20 03:57:33;;;;;;;16.00;10.90;;;15.40;99.90;;;;;;5053623;28;20187;-59
2023/07/20 04:00:01;;;;;;;17.33;10.93;;;15.50;99.90;;;;;;5051761;28;20199;-59
2023/07/20 04:02:30;;;;;;;20.83;10.73;;;15.50;99.90;;;;;;5055130;28;20192;-58
2023/07/20 04:04:59;;;;;;;18.27;11.33;;;15.50;99.90;;;;;;5060162;28;20202;-58
2023/07/20 04:07:27;;;;;;;16.93;10.33;;;15.50;99.90;;;;;;5052589;28;20797;-58
2023/07/20 04:09:56;;;;;;;21.30;10.63;;;15.50;99.90;;;;;;5055340;28;20200;-58
2023/07/20 04:12:25;;;;;;;17.37;10.97;;;15.50;99.90;;;;;;5053243;28;20204;-58
2023/07/20 04:14:53;;;;;;;17.13;10.80;;;15.50;99.90;;;;;;5055373;28;20535;-58
2023/07/20 04:17:22;;;;;;;14.57;10.67;;;15.50;99.90;;;;;;5069282;28;20191;-58
2023/07/20 04:19:50;;;;;;;20.73;10.67;;;15.60;99.90;;;;;;5053139;28;20195;-58
2023/07/20 04:22:19;;;;;;;17.73;10.77;;;15.60;99.90;;;;;;5058795;28;20693;-58
2023/07/20 04:24:48;;;;;;;21.93;11.93;;;15.60;99.90;;;;;;5057774;28;20190;-58
2023/07/20 04:27:18;;;;;;;17.67;11.13;;;15.60;99.90;;;;;;5055807;28;20291;-58
2023/07/20 04:29:46;;;;;;;14.87;10.13;;;15.60;99.90;;;;;;5055235;28;20600;-58
2023/07/20 04:32:14;;;;;;;14.20;10.23;;;15.60;99.90;;;;;;5054097;28;20253;-58
2023/07/20 04:34:43;;;;;;;15.83;10.17;;;15.60;99.90;;;;;;5053545;28;20193;-59
2023/07/20 04:37:11;;;;;;;14.67;11.00;;;15.60;99.90;;;;;;5059377;28;20198;-58
2023/07/20 04:39:39;;;;;;;17.63;10.90;;;15.70;99.90;;;;;;5052655;28;20205;-58
2023/07/20 04:42:08;;;;;;;14.17;10.10;;;15.70;99.90;;;;;;5063849;28;21038;-59
2023/07/20 04:44:38;;;;;;;14.93;10.07;;;15.70;99.90;;;;;;5048908;28;20195;-59
2023/07/20 04:47:06;;;;;;;14.67;10.80;;;15.70;99.90;;;;;;5061049;28;20192;-59
2023/07/20 04:49:34;;;;;;;15.13;10.30;;;15.70;99.90;;;;;;5047057;28;20192;-59
2023/07/20 04:52:03;;;;;;;14.77;10.20;;;15.80;99.90;;;;;;5048310;28;20278;-59
2023/07/20 04:54:31;;;;;;;12.50;9.13;;;15.80;99.90;;;;;;5047409;28;20231;-59
2023/07/20 04:57:00;;;;;;;15.53;10.70;;;15.80;99.90;;;;;;5052084;28;20198;-59
2023/07/20 04:59:28;;;;;;;15.97;10.60;;;15.80;99.90;;;;;;5044025;28;20223;-59
2023/07/20 05:01:58;;;;;;;16.20;10.13;;;15.80;99.90;;;;;;5049457;28;20582;-59
2023/07/20 05:04:26;;;;;;;23.77;10.87;;;15.80;99.90;;;;;;5055744;28;20191;-59
2023/07/20 05:07:05;;;;;;;20.57;10.27;;;15.90;99.90;;;;;;5053993;28;20210;-59
2023/07/20 05:09:35;;;;;;;14.33;9.67;;;15.90;99.90;;;;;;5052748;28;20206;-59
2023/07/20 05:12:04;;;;;;;13.93;9.90;;;15.90;99.90;;;;;;5046112;28;20610;-59
2023/07/20 05:14:32;;;;;;;19.03;10.67;;;15.90;99.90;;;;;;5048459;28;20200;-59
2023/07/20 05:17:02;;;;;;;18.00;10.90;;;15.90;99.90;;;;;;5059989;28;20660;-59
2023/07/20 05:19:30;;;;;;;15.83;10.77;;;16.00;99.90;;;;;;5052195;28;20202;-59
2023/07/20 05:21:59;;;;;;;13.90;10.30;;;16.00;99.90;;;;;;5048751;28;20523;-59
2023/07/20 05:24:27;;;;;;;16.67;10.90;;;16.00;99.90;;;;;;5048884;28;20191;-59
2023/07/20 05:26:59;;;;;;;14.77;10.30;;;16.10;99.90;;;;;;5053331;28;20180;-59
2023/07/20 05:29:27;;;;;;;15.37;10.17;;;16.10;99.90;;;;;;5049700;28;20225;-59
2023/07/20 05:31:56;;;;;;;15.60;11.10;;;16.10;99.90;;;;;;5050535;28;20280;-59
2023/07/20 05:34:26;;;;;;;13.97;9.07;;;16.20;99.90;;;;;;5049235;28;20197;-59
2023/07/20 05:36:54;;;;;;;17.10;10.03;;;16.30;99.90;;;;;;5048104;28;20219;-59
2023/07/20 05:39:22;;;;;;;18.60;10.47;;;16.30;99.90;;;;;;5043998;28;20197;-59
2023/07/20 05:41:50;;;;;;;14.63;9.93;;;16.40;99.90;;;;;;5052493;28;20212;-59
2023/07/20 05:44:19;;;;;;;16.20;10.67;;;16.40;99.90;;;;;;5050095;28;20208;-59
2023/07/20 05:46:47;;;;;;;13.80;10.33;;;16.50;99.90;;;;;;5051011;28;20283;-59
2023/07/20 05:49:26;;;;;;;18.40;10.30;;;16.50;99.90;;;;;;5046555;28;20216;-59
2023/07/20 05:51:56;;;;;;;18.87;11.03;;;16.50;99.90;;;;;;5046831;28;20195;-59
2023/07/20 05:54:25;;;;;;;16.00;9.77;;;16.50;99.90;;;;;;5054188;28;20718;-59
2023/07/20 05:56:54;;;;;;;12.83;10.00;;;16.60;99.90;;;;;;5048156;28;20199;-59
2023/07/20 05:59:23;;;;;;;16.07;10.40;;;16.70;99.90;;;;;;5045827;28;20280;-59
2023/07/20 06:01:52;;;;;;;12.57;9.00;;;16.70;99.90;;;;;;5047647;28;20661;-59
2023/07/20 06:04:20;;;;;;;16.73;10.47;;;16.70;99.90;;;;;;5057627;28;20203;-58
2023/07/20 06:06:50;;;;;;;13.63;9.83;;;16.80;99.90;;;;;;5055728;28;20185;-58
2023/07/20 06:09:19;;;;;;;14.07;9.47;;;16.90;99.90;;;;;;5048567;28;21003;-58
2023/07/20 06:11:47;;;;;;;12.20;9.43;;;17.00;99.90;;;;;;5049614;28;20199;-58
2023/07/20 06:14:16;;;;;;;13.03;9.77;;;17.10;99.90;;;;;;5049532;28;20295;-59
2023/07/20 06:16:44;;;;;;;15.27;10.17;;;17.20;99.90;;;;;;5049554;28;20614;-59
2023/07/20 06:19:13;;;;;;;13.30;9.30;;;17.30;99.90;;;;;;5049525;28;20720;-59
2023/07/20 06:21:42;;;;;;;12.63;8.20;;;17.40;99.90;;;;;;5054742;28;20209;-59
2023/07/20 06:24:11;;;;;;;15.30;8.70;;;17.50;99.90;;;;;;5059609;28;20840;-59
2023/07/20 06:26:41;;;;;;;12.50;8.10;;;17.60;99.90;;;;;;5060274;28;20217;-59
2023/07/20 06:29:10;;;;;;;9.40;8.27;;;17.70;99.90;;;;;;5047089;28;20236;-58
2023/07/20 06:31:38;;;;;;;9.93;7.47;;;17.80;99.90;;;;;;5052847;28;20204;-59
2023/07/20 06:34:07;;;;;;;9.60;7.47;;;17.90;99.90;;;;;;5045842;28;20196;-59
2023/07/20 06:36:36;;;;;;;7.63;6.83;;;18.00;99.90;;;;;;5050544;28;20193;-59
2023/07/20 06:39:05;;;;;;;7.53;5.93;;;18.10;99.90;;;;;;5052455;28;20193;-58
2023/07/20 06:41:37;;;;;;;7.67;5.73;;;18.30;99.90;;;;;;5052522;28;20192;-58
2023/07/20 06:44:09;;;;;;;5.40;5.00;;;18.30;99.90;;;;;;5048908;28;20193;-58
2023/07/20 06:46:37;;;;;;;4.83;4.53;;;18.30;99.90;;;;;;5048567;28;20566;-59
2023/07/20 06:49:07;;;;;;;9.87;5.43;;;18.30;99.90;;;;;;5053193;28;20224;-59
2023/07/20 06:51:39;;;;;;;5.20;4.77;;;18.40;99.90;;;;;;5047667;28;20223;-59
2023/07/20 06:54:07;;;;;;;4.40;4.17;;;18.40;99.90;;;;;;5050134;28;20207;-59
2023/07/20 06:56:37;;;;;;;4.33;2.87;;;18.60;98.10;;;;;;5052745;28;20234;-59
2023/07/20 06:59:12;;;;;;;3.80;3.10;;;18.70;91.90;;;;;;5047126;28;20196;-59
2023/07/20 07:01:40;;;;;;;3.80;3.50;;;18.90;85.80;;;;;;5045703;28;20195;-60
2023/07/20 07:04:09;;;;;;;5.90;3.90;;;19.10;88.70;;;;;;5050352;28;20193;-60
2023/07/20 07:06:38;;;;;;;2.90;2.70;;;19.30;69.30;;;;;;5041374;28;20246;-60
2023/07/20 07:09:08;;;;;;;1.70;1.60;;;19.40;62.60;;;;;;5063393;28;20204;-60
2023/07/20 07:11:39;;;;;;;2.00;1.90;;;19.60;60.20;;;;;;5048695;28;20189;-60
2023/07/20 07:14:08;;;;;;;2.83;1.87;;;19.90;43.30;;;;;;5051412;28;20215;-60
2023/07/20 07:16:36;;;;;;;2.40;2.30;;;20.00;34.80;;;;;;5048117;28;20197;-59
2023/07/20 07:19:07;;;;;;;2.00;1.90;;;20.30;22.50;;;;;;5049988;28;20189;-59
2023/07/20 07:21:36;;;;;;;2.40;2.30;;;20.70;8.10;;;;;;5053305;28;20308;-60
2023/07/20 07:24:07;;;;;;;1.93;1.67;;;21.00;1.00;;;;;;5046370;28;20414;-60
2023/07/20 07:26:35;;;;;;;1.30;1.20;;;21.10;1.00;;;;;;5046425;28;20790;-59
2023/07/20 07:29:05;;;;;;;1.63;1.40;;;21.10;1.00;;;;;;5048315;28;20219;-58
2023/07/20 07:31:36;;;;;;;4.07;2.03;;;21.40;1.00;;;;;;5051719;28;20196;-58
2023/07/20 07:34:05;;;;;;;2.40;2.20;;;22.00;1.00;;;;;;5047870;28;20292;-59
2023/07/20 07:36:33;;;;;;;1.80;1.70;;;22.30;1.00;;;;;;5051958;28;20205;-58
2023/07/20 07:39:02;;;;;;;1.98;1.88;;;22.50;1.00;;;;;;5052530;28;20274;-59
2023/07/20 07:41:51;;;;;;;1.45;1.45;;;22.90;1.00;;;;;;5050532;28;20208;-59
2023/07/20 07:44:21;;;;;;;1.40;1.40;;;23.30;1.00;;;;;;5052737;28;20189;-59
2023/07/20 07:46:49;;;;;;;1.40;1.30;;;23.60;1.00;;;;;;5070001;28;20186;-59
2023/07/20 07:49:19;;;;;;;2.40;2.20;;;24.20;1.00;;;;;;5051085;28;20694;-59
2023/07/20 07:51:49;;;;;;;1.58;1.50;;;24.60;99.90;;;;;;5052234;28;20185;-58
2023/07/20 07:54:17;;;;;;;1.00;1.00;;;24.40;1.00;;;;;;5055281;28;20187;-58
2023/07/20 07:56:45;;;;;;;1.10;1.10;;;24.20;99.90;;;;;;5041222;28;20208;-59
2023/07/20 07:59:17;;;;;;;4.40;1.88;;;24.20;99.90;;;;;;5050541;28;20202;-59
2023/07/20 08:01:46;;;;;;;1.70;1.60;;;24.50;99.90;;;;;;5049316;28;20207;-58
2023/07/20 08:04:15;;;;;;;2.00;1.90;;;24.20;99.90;;;;;;5056567;28;20265;-59
2023/07/20 08:06:43;;;;;;;1.83;1.73;;;24.30;1.00;;;;;;5050556;28;20198;-58
2023/07/20 08:09:12;;;;;;;1.58;1.50;;;24.70;99.90;;;;;;5051684;28;20547;-59
2023/07/20 08:11:40;;;;;;;1.65;1.63;;;24.90;99.90;;;;;;5053102;28;20619;-59
2023/07/20 08:14:10;;;;;;;1.70;1.60;;;24.60;99.90;;;;;;5050376;28;20798;-58
2023/07/20 08:16:39;;;;;;;2.72;2.25;;;24.20;99.90;;;;;;5047465;28;20678;-58
2023/07/20 08:19:09;;;;;;;2.38;2.03;;;23.90;99.90;;;;;;5045575;28;20194;-58
2023/07/20 08:21:37;;;;;;;4.20;2.17;;;23.80;99.90;;;;;;5060394;28;20562;-58
2023/07/20 08:24:07;;;;;;;3.75;2.13;;;23.50;99.90;;;;;;5053490;28;20217;-58
2023/07/20 08:26:35;;;;;;;2.33;2.22;;;23.30;1.00;;;;;;5049846;28;20202;-58
2023/07/20 08:29:03;;;;;;;2.20;2.10;;;23.20;1.00;;;;;;5049711;28;20217;-58
2023/07/20 08:31:32;;;;;;;2.27;2.07;;;23.10;1.00;;;;;;5063089;28;20595;-58
2023/07/20 08:34:01;;;;;;;3.33;2.20;;;22.80;1.00;;;;;;5055167;28;20189;-58
2023/07/20 08:36:41;;;;;;;1.70;1.70;;;22.70;1.00;;;;;;5057667;28;20192;-58
2023/07/20 08:39:09;;;;;;;1.60;1.60;;;22.80;1.00;;;;;;5050112;28;20208;-58
2023/07/20 08:41:39;;;;;;;2.58;1.70;;;22.90;1.00;;;;;;5048669;28;20199;-58
2023/07/20 08:44:08;;;;;;;1.20;1.10;;;23.60;1.00;;;;;;5055423;28;20221;-59
2023/07/20 08:46:37;;;;;;;1.65;1.50;;;24.60;70.50;;;;;;5047272;28;20199;-59
2023/07/20 08:49:07;;;;;;;1.50;1.40;;;25.40;99.90;;;;;;5052802;28;20227;-59
2023/07/20 08:51:37;;;;;;;1.45;1.35;;;25.90;99.90;;;;;;5047239;28;20195;-58
2023/07/20 08:54:09;;;;;;;1.85;0.90;;;26.10;95.30;;;;;;5054388;28;20536;-58
2023/07/20 08:56:38;;;;;;;1.58;1.25;;;26.00;99.90;;;;;;5053844;28;20193;-58
2023/07/20 08:59:08;;;;;;;1.30;1.30;;;25.60;99.90;;;;;;5044281;28;20207;-59
2023/07/20 09:01:40;;;;;;;2.55;1.30;;;25.30;1.00;;;;;;5052053;28;20247;-59
2023/07/20 09:04:08;;;;;;;1.85;1.65;;;25.50;1.00;;;;;;5053624;28;20615;-58
2023/07/20 09:06:37;;;;;;;1.17;1.10;;;25.50;1.00;;;;;;5045818;28;20191;-59
2023/07/20 09:09:07;;;;;;;1.33;1.30;;;25.20;99.90;;;;;;5048518;28;20185;-59
2023/07/20 09:11:35;;;;;;;1.48;1.13;;;24.90;1.00;;;;;;5050176;28;20650;-58
2023/07/20 09:14:05;;;;;;;1.10;1.10;;;25.00;1.00;;;;;;5050199;28;20207;-59
2023/07/20 09:16:47;;;;;;;3.75;1.25;;;25.10;1.00;;;;;;5050452;28;20286;-59
2023/07/20 09:19:17;;;;;;;2.05;1.30;;;24.90;1.00;;;;;;5049739;28;20262;-58
2023/07/20 09:21:50;;;;;;;1.48;1.38;;;24.50;1.00;;;;;;5048967;28;20202;-59
2023/07/20 09:24:21;;;;;;;2.15;1.42;;;24.00;99.90;;;;;;5055681;28;20243;-59
2023/07/20 09:26:51;;;;;;;2.45;1.38;;;23.70;99.90;;;;;;5050446;28;20224;-59
2023/07/20 09:29:19;;;;;;;1.30;1.30;;;23.90;99.90;;;;;;5043410;28;20217;-59
2023/07/20 09:32:01;;;;;;;1.45;1.42;;;24.20;1.00;;;;;;5051863;28;20312;-59
2023/07/20 09:34:31;;;;;;;2.20;1.70;;;24.80;1.00;;;;;;5050558;28;20672;-59
2023/07/20 09:37:03;;;;;;;1.65;1.55;;;24.80;99.90;;;;;;5051048;28;20664;-59
2023/07/20 09:39:42;;;;;;;1.70;1.60;;;24.40;1.00;;;;;;5052450;28;20372;-59
2023/07/20 09:42:31;;;;;;;1.60;1.50;;;24.30;1.00;;;;;;5042149;28;20233;-59
2023/07/20 09:45:02;;;;;;;2.53;1.40;;;24.20;1.00;;;;;;5048143;28;20271;-59
2023/07/20 09:47:33;;;;;;;1.63;1.63;;;24.20;1.00;;;;;;5045826;28;22185;-59
2023/07/20 09:50:01;;;;;;;1.70;1.70;;;24.00;1.00;;;;;;5046320;28;20200;-59
2023/07/20 09:52:33;;;;;;;1.50;1.40;;;23.70;1.00;;;;;;5050500;28;20185;-59
2023/07/20 09:55:07;;;;;;;1.40;1.40;;;24.50;1.00;;;;;;5047987;28;20270;-59
2023/07/20 09:57:36;;;;;;;1.63;1.52;;;25.60;1.00;;;;;;5048349;28;20195;-59
2023/07/20 10:00:13;;;;;;;1.77;1.60;;;26.00;1.00;;;;;;5049751;28;20252;-60
2023/07/20 10:02:46;;;;;;;3.03;1.52;;;25.80;1.00;;;;;;5047024;28;20196;-59
2023/07/20 10:05:16;;;;;;;1.70;1.70;;;25.50;1.00;;;;;;5042936;28;20618;-59
2023/07/20 10:07:47;;;;;;;1.75;1.75;;;25.20;99.90;;;;;;5047446;28;20190;-59
2023/07/20 10:10:19;;;;;;;1.63;1.60;;;25.00;99.90;;;;;;5061407;28;20198;-59
2023/07/20 10:12:50;;;;;;;1.95;1.85;;;25.30;99.90;;;;;;5052757;28;20198;-60
2023/07/20 10:15:23;;;;;;;1.83;1.70;;;26.10;1.00;;;;;;5049835;28;20281;-60
2023/07/20 10:18:00;;;;;;;1.65;1.50;;;26.80;1.00;;;;;;5049122;28;20648;-59
2023/07/20 10:20:29;;;;;;;1.90;1.75;;;28.00;99.90;;;;;;5038799;28;20204;-58
2023/07/20 10:23:01;;;;;;;3.33;1.63;;;28.90;99.90;;;;;;5047342;28;20200;-58
2023/07/20 10:25:31;;;;;;;1.35;1.25;;;29.40;1.00;;;;;;5041846;28;20545;-58
2023/07/20 10:28:00;;;;;;;1.27;1.27;;;29.70;1.60;;;;;;5056320;28;20299;-59
2023/07/20 10:30:34;;;;;;;1.42;1.40;;;28.90;99.90;;;;;;5045535;28;20238;-59
2023/07/20 10:33:03;;;;;;;2.25;1.40;;;28.10;99.90;;;;;;5057983;28;20214;-59
2023/07/20 10:35:32;;;;;;;1.63;1.40;;;27.10;1.00;;;;;;5048035;28;20523;-59
2023/07/20 10:38:05;;;;;;;1.33;1.30;;;26.90;1.00;;;;;;5051190;28;20251;-59
2023/07/20 10:40:38;;;;;;;1.35;1.35;;;27.60;99.90;;;;;;5049820;28;20189;-59
2023/07/20 10:43:08;;;;;;;2.15;1.30;;;28.50;99.90;;;;;;5044025;28;20220;-60
2023/07/20 10:45:41;;;;;;;1.45;1.40;;;28.60;99.90;;;;;;5042840;28;20198;-59
2023/07/20 10:48:16;;;;;;;1.38;1.38;;;28.70;99.90;;;;;;5043093;28;20228;-59
2023/07/20 10:50:45;;;;;;;1.30;1.30;;;28.30;57.20;;;;;;5049156;28;20195;-59
2023/07/20 10:53:15;;;;;;;1.52;1.50;;;27.60;1.00;;;;;;5052819;28;20193;-59
2023/07/20 10:55:46;;;;;;;1.70;1.60;;;27.10;1.00;;;;;;5046020;28;20212;-58
2023/07/20 10:58:15;;;;;;;1.80;1.70;;;26.90;99.90;;;;;;5046248;28;20206;-58
2023/07/20 11:00:59;;;;;;;1.42;1.42;;;26.50;1.00;;;;;;5044011;28;20221;-59
2023/07/20 11:03:31;;;;;;;1.90;1.80;;;26.10;1.00;;;;;;5048356;28;20197;-59
2023/07/20 11:06:34;;;;;;;2.20;1.50;;;26.00;1.00;;;;;;5048844;28;20238;-58
2023/07/20 11:09:11;;;;;;;1.55;1.55;;;25.80;1.00;;;;;;5054486;28;20570;-58
2023/07/20 11:11:42;;;;;;;1.65;1.55;;;25.40;1.00;;;;;;5046358;28;20185;-59
2023/07/20 11:14:20;;;;;;;1.92;1.67;;;25.30;1.00;;;;;;5050770;28;20190;-59
2023/07/20 11:16:50;;;;;;;1.40;1.40;;;25.70;1.00;;;;;;5052490;28;20701;-58
2023/07/20 11:19:23;;;;;;;3.28;1.60;;;25.90;99.90;;;;;;5045371;28;20247;-58
2023/07/20 11:21:56;;;;;;;1.73;1.63;;;26.40;99.90;;;;;;5053650;28;20534;-59
2023/07/20 11:24:32;;;;;;;1.50;1.50;;;26.90;99.90;;;;;;5048996;28;20231;-58
2023/07/20 11:27:02;;;;;;;1.63;1.30;;;26.90;59.80;;;;;;5055409;28;20800;-59
2023/07/20 11:29:31;;;;;;;1.85;1.75;;;27.40;1.00;;;;;;5046479;28;20207;-59
2023/07/20 11:32:02;;;;;;;1.38;1.38;;;27.30;33.60;;;;;;5050599;28;20229;-59
2023/07/20 11:34:33;;;;;;;1.65;1.55;;;26.90;99.90;;;;;;5045448;28;20231;-59
2023/07/20 11:37:03;;;;;;;2.25;1.90;;;26.40;99.90;;;;;;5055164;28;21023;-59
2023/07/20 11:39:34;;;;;;;1.58;1.58;;;26.10;1.00;;;;;;5049677;28;20191;-58
2023/07/20 11:42:06;;;;;;;2.72;1.65;;;25.90;99.90;;;;;;5048297;28;20213;-58
2023/07/20 11:44:35;;;;;;;1.90;1.80;;;25.60;1.00;;;;;;5045808;28;20232;-58
2023/07/20 11:47:05;;;;;;;2.20;2.00;;;25.30;1.00;;;;;;5052075;28;20202;-58
2023/07/20 11:49:37;;;;;;;1.63;1.60;;;25.10;1.00;;;;;;5053958;28;20256;-58
2023/07/20 11:52:07;;;;;;;1.93;1.67;;;24.80;99.90;;;;;;5047509;28;20201;-58
2023/07/20 11:54:36;;;;;;;1.93;1.83;;;24.60;99.90;;;;;;5053779;28;20188;-58
2023/07/20 11:57:06;;;;;;;1.97;1.83;;;24.50;99.90;;;;;;5048512;28;20224;-58
2023/07/20 11:59:35;;;;;;;2.20;1.70;;;24.20;1.00;;;;;;5045672;28;20189;-58
2023/07/20 12:02:04;;;;;;;1.93;1.70;;;24.10;99.90;;;;;;5045883;28;20196;-58
2023/07/20 12:04:33;;;;;;;2.13;1.70;;;23.90;1.00;;;;;;5042266;28;20197;-58
2023/07/20 12:07:01;;;;;;;1.43;1.43;;;23.80;1.00;;;;;;5050254;28;20211;-58
2023/07/20 12:09:30;;;;;;;3.43;1.60;;;23.70;1.00;;;;;;5051749;28;20275;-59
2023/07/20 12:12:20;;;;;;;5.70;1.60;;;23.60;1.00;;;;;;5048792;28;20202;-59
2023/07/20 12:14:48;;;;;;;1.50;1.50;;;23.60;1.00;;;;;;5048302;28;20188;-58
2023/07/20 12:17:17;;;;;;;2.20;1.40;;;23.60;1.00;;;;;;5049373;28;20236;-58
2023/07/20 12:19:46;;;;;;;1.70;1.70;;;23.40;1.00;;;;;;5046864;28;20223;-58
2023/07/20 12:22:15;;;;;;;3.43;1.60;;;23.30;1.00;;;;;;5047964;28;20562;-58
2023/07/20 12:24:43;;;;;;;3.00;1.70;;;23.10;1.00;;;;;;5051301;28;20189;-58
2023/07/20 12:27:16;;;;;;;1.63;1.53;;;22.90;18.50;;;;;;5050530;28;20273;-58
2023/07/20 12:29:47;;;;;;;1.50;1.50;;;22.80;99.90;;;;;;5052559;28;20296;-58
2023/07/20 12:32:16;;;;;;;2.70;1.57;;;22.70;99.90;;;;;;5047732;28;20277;-58
2023/07/20 12:34:44;;;;;;;1.93;1.73;;;22.50;1.00;;;;;;5055085;28;20940;-58
2023/07/20 12:37:13;;;;;;;1.93;1.83;;;22.40;1.00;;;;;;5047235;28;20191;-58
2023/07/20 12:39:44;;;;;;;3.80;1.93;;;22.20;1.00;;;;;;5049217;28;20187;-59
2023/07/20 12:42:14;;;;;;;4.40;2.00;;;22.00;1.00;;;;;;5039726;28;20190;-59
2023/07/20 12:44:45;;;;;;;2.50;2.40;;;21.80;1.00;;;;;;5056255;28;20208;-59
2023/07/20 12:47:15;;;;;;;2.90;2.70;;;21.30;1.00;;;;;;5052659;28;20233;-59
2023/07/20 12:49:46;;;;;;;3.43;2.67;;;21.10;1.00;;;;;;5045977;28;20199;-59
2023/07/20 12:52:14;;;;;;;3.10;2.90;;;20.90;1.00;;;;;;5055360;28;20230;-59
2023/07/20 12:54:43;;;;;;;2.60;2.50;;;20.80;1.00;;;;;;5062464;28;20201;-59
2023/07/20 12:57:11;;;;;;;3.07;2.87;;;20.60;1.00;;;;;;5043972;28;20255;-59
2023/07/20 12:59:40;;;;;;;2.80;2.70;;;20.40;1.00;;;;;;5054109;28;20610;-60